EDT,Max TemperatureF,Mean TemperatureF,Min TemperatureF,Max Dew PointF,MeanDew PointF,Min DewpointF,Max Humidity, Mean Humidity, Min Humidity, Max Sea Level PressureIn, Mean Sea Level PressureIn, Min Sea Level PressureIn, Max VisibilityMiles, Mean VisibilityMiles, Min VisibilityMiles, Max Wind SpeedMPH, Mean Wind SpeedMPH, Max Gust SpeedMPH,PrecipitationIn, CloudCover, Events, WindDirDegrees
2013-6-1,82,74,66,64,61,59,83,65,45,30.18,30.11,30.04,10,10,10,18,10,24,0.00,3,Rain,191
2013-6-2,69,66,64,68,65,61,100,95,73,30.05,30.02,29.98,10,9,4,14,8,23,0.11,7,Rain-Thunderstorm,202
2013-6-3,73,66,59,66,61,59,100,89,61,30.10,30.02,29.98,10,8,0,12,3,18,0.02,6,Fog-Rain,325
2013-6-4,77,66,55,63,59,55,100,84,54,30.17,30.13,30.08,10,8,0,9,3,,0.00,4,Fog,22
2013-6-5,80,70,59,68,61,55,100,80,54,30.16,30.10,30.01,10,9,2,12,4,17,0.95,3,Rain-Thunderstorm,180
2013-6-6,77,70,62,68,64,63,100,87,65,30.04,29.93,29.87,10,10,5,12,7,17,0.00,6,Rain,198
2013-6-7,73,66,60,68,64,61,100,97,78,29.96,29.86,29.82,10,7,2,10,3,16,0.14,7,Rain,354
2013-6-8,77,66,55,64,60,55,100,83,54,30.18,30.05,29.94,10,7,0,10,3,,0.00,6,Fog-Rain,220
2013-6-9,80,70,60,66,62,59,100,81,51,30.23,30.16,30.10,10,9,2,13,4,18,0.31,4,Rain-Thunderstorm,166
2013-6-10,73,66,60,68,64,59,100,93,68,30.09,30.01,29.97,10,9,2,18,9,29,0.46,6,Rain-Thunderstorm,209
2013-6-11,77,68,59,64,62,59,100,84,57,30.12,30.08,30.00,10,9,2,9,5,,0.08,5,,258
2013-6-12,87,74,62,72,67,61,100,76,49,30.13,30.08,30.00,10,10,10,15,7,21,0.00,2,Thunderstorm,244
2013-6-13,78,69,60,70,67,57,100,88,74,30.02,29.92,29.83,10,10,1,21,12,31,0.74,5,Rain-Thunderstorm,261
2013-6-14,73,64,55,59,56,54,100,75,50,30.16,30.06,29.95,10,10,10,10,5,18,0.00,2,,326
2013-6-15,78,66,53,61,57,54,100,74,44,30.23,30.18,30.14,10,10,10,9,2,17,0.00,1,,242
2013-6-16,77,68,60,68,63,59,100,81,65,30.20,30.16,30.12,10,10,0,15,6,20,0.00,3,Fog-Rain-Thunderstorm,226
2013-6-17,80,71,62,70,66,61,100,87,58,30.14,30.09,30.03,10,9,0,16,6,21,0.01,6,Fog-Rain-Thunderstorm,230
2013-6-18,69,64,59,68,62,59,100,96,78,30.07,29.99,29.96,10,7,0,12,4,16,1.50,7,Fog-Rain-Thunderstorm,359
2013-6-19,78,68,59,66,62,59,100,82,54,30.22,30.12,30.04,10,8,0,9,2,,0.00,3,Fog,10
2013-6-20,80,70,60,66,63,59,100,80,51,30.30,30.26,30.21,10,9,2,9,2,,0.00,3,Rain-Thunderstorm,108
2013-6-21,80,72,64,68,64,61,100,78,54,30.35,30.31,30.28,10,10,5,10,5,,0.05,3,Rain-Thunderstorm,190
2013-6-22,84,73,62,63,60,54,100,68,37,30.35,30.29,30.22,10,10,10,10,3,,0.00,1,,134
2013-6-23,84,73,62,64,61,55,94,67,39,30.32,30.26,30.22,10,10,10,9,3,,0.00,2,,199
2013-6-24,82,73,64,70,65,63,100,80,54,30.32,30.26,30.20,10,9,0,10,5,21,0.61,4,Rain-Thunderstorm,206
2013-6-25,78,71,64,72,68,64,100,92,69,30.25,30.20,30.12,10,8,0,10,5,,0.01,3,Fog-Rain-Thunderstorm,222
2013-6-26,80,72,64,72,69,64,100,92,65,30.14,30.08,29.99,10,8,2,15,7,21,0.09,3,Rain-Thunderstorm,223
2013-6-27,77,70,64,72,68,64,100,94,78,30.00,29.93,29.89,10,9,1,15,9,23,0.80,7,Rain-Thunderstorm,232
2013-6-28,78,71,64,72,66,57,100,84,57,29.91,29.83,29.76,10,9,2,17,8,24,0.01,4,Rain-Thunderstorm,242
2013-6-29,78,69,60,66,62,59,100,78,54,29.81,29.77,29.74,10,10,10,15,7,21,0.00,4,,222
2013-6-30,80,71,62,68,61,55,100,71,42,29.93,29.85,29.79,10,10,1,9,5,16,0.39,4,Rain-Thunderstorm,203